Time;durP1;ratioP1;P1;durP2;ratioP2;P2;SDS_P1;SDS_P2;PMS_P1;PMS_P2;Temp;Humidity;BMP_temperature;BMP_pressure;BME280_temperature;BME280_humidity;BME280_pressure;Samples;Min_cycle;Max_cycle;Signal;HPM_P1;HPM_P2
2023/12/02 00:01:48;;;;;;;148.23;12.25;;;;;;;0.10;100.00;96597.56;5027466;28;20037;-53
2023/12/02 00:04:14;;;;;;;96.43;10.45;;;;;;;-0.02;100.00;96585.44;5031557;28;20029;-52
2023/12/02 00:06:39;;;;;;;114.30;11.80;;;;;;;-0.04;100.00;96571.75;5027289;28;20059;-53
2023/12/02 00:09:05;;;;;;;83.88;9.75;;;;;;;-0.06;100.00;96587.91;5032183;28;20031;-52
2023/12/02 00:11:30;;;;;;;89.28;10.60;;;;;;;0.03;100.00;96588.06;5031192;28;20051;-53
2023/12/02 00:13:55;;;;;;;71.60;9.93;;;;;;;0.11;100.00;96583.94;5028820;28;21476;-53
2023/12/02 00:16:21;;;;;;;81.88;9.65;;;;;;;0.06;100.00;96584.69;5030741;28;20037;-53
2023/12/02 00:18:46;;;;;;;159.50;14.23;;;;;;;0.14;100.00;96590.78;5028431;28;20570;-52
2023/12/02 00:21:11;;;;;;;82.97;9.93;;;;;;;0.16;100.00;96598.47;5030162;28;20037;-52
2023/12/02 00:23:37;;;;;;;83.28;11.10;;;;;;;0.17;100.00;96600.19;5031872;28;20498;-52
2023/12/02 00:26:02;;;;;;;99.85;10.73;;;;;;;0.22;100.00;96602.00;5030488;28;20100;-53
2023/12/02 00:28:28;;;;;;;69.53;9.30;;;;;;;0.22;100.00;96596.03;5032362;28;20040;-52
2023/12/02 00:30:53;;;;;;;142.57;13.15;;;;;;;0.14;100.00;96597.59;5026352;28;20036;-53
2023/12/02 00:33:19;;;;;;;102.53;10.55;;;;;;;0.26;100.00;96605.47;5032457;28;20021;-52
2023/12/02 00:35:44;;;;;;;117.85;10.98;;;;;;;0.12;100.00;96611.19;5030084;28;20220;-53
2023/12/02 00:38:09;;;;;;;89.00;10.18;;;;;;;0.19;100.00;96606.19;5031479;28;20037;-53
2023/12/02 00:40:35;;;;;;;97.35;11.27;;;;;;;0.31;100.00;96591.03;5029385;28;20252;-52
2023/12/02 00:43:00;;;;;;;78.47;10.65;;;;;;;0.17;100.00;96574.63;5027341;28;20643;-52
2023/12/02 00:45:25;;;;;;;62.92;5.45;;;;;;;-0.03;100.00;96572.63;5031049;28;20087;-52
2023/12/02 00:47:51;;;;;;;108.72;11.00;;;;;;;0.04;100.00;96569.31;5032948;28;20465;-52
2023/12/02 00:50:16;;;;;;;95.80;10.80;;;;;;;0.07;100.00;96551.47;5034046;28;20602;-54
2023/12/02 00:52:42;;;;;;;100.68;10.50;;;;;;;-0.17;100.00;96555.41;5034175;28;20029;-52
2023/12/02 00:55:08;;;;;;;75.82;9.75;;;;;;;-0.19;100.00;96551.94;5034462;28;20033;-52
2023/12/02 00:57:33;;;;;;;92.28;9.43;;;;;;;-0.16;100.00;96559.66;5034368;28;20409;-52
2023/12/02 00:59:59;;;;;;;54.08;8.80;;;;;;;-0.24;100.00;96558.69;5032779;28;20370;-52
2023/12/02 01:02:24;;;;;;;108.50;10.63;;;;;;;-0.20;100.00;96551.91;5032668;28;20132;-53
2023/12/02 01:04:49;;;;;;;145.40;13.70;;;;;;;-0.25;100.00;96569.75;5032555;28;20484;-52
2023/12/02 01:07:15;;;;;;;64.72;8.98;;;;;;;-0.22;100.00;96579.16;5031750;28;20239;-53
2023/12/02 01:09:40;;;;;;;100.22;11.00;;;;;;;-0.20;100.00;96590.25;5033782;28;20021;-52
2023/12/02 01:12:06;;;;;;;94.03;10.30;;;;;;;-0.11;100.00;96599.75;5032304;28;20076;-53
2023/12/02 01:14:31;;;;;;;69.05;9.00;;;;;;;-0.18;100.00;96596.25;5034452;28;20025;-53
2023/12/02 01:16:57;;;;;;;130.90;12.18;;;;;;;-0.32;100.00;96596.00;5032287;28;20331;-52
2023/12/02 01:19:22;;;;;;;124.22;12.25;;;;;;;-0.32;100.00;96590.91;5032771;28;20033;-53
2023/12/02 01:21:48;;;;;;;131.07;13.50;;;;;;;-0.29;100.00;96583.28;5031221;28;20032;-53
2023/12/02 01:24:14;;;;;;;98.55;10.73;;;;;;;-0.31;100.00;96567.06;5033454;28;20087;-53
2023/12/02 01:26:39;;;;;;;87.15;9.80;;;;;;;-0.27;100.00;96574.81;5033798;28;20098;-53
2023/12/02 01:29:05;;;;;;;58.30;8.00;;;;;;;-0.27;100.00;96576.50;5032088;28;20044;-53
2023/12/02 01:31:30;;;;;;;86.32;10.23;;;;;;;-0.22;100.00;96582.53;5033426;28;20078;-52
2023/12/02 01:33:55;;;;;;;136.90;13.23;;;;;;;-0.23;100.00;96578.28;5032884;28;20095;-53
2023/12/02 01:36:21;;;;;;;95.93;10.40;;;;;;;-0.25;100.00;96582.50;5031665;28;20041;-53
2023/12/02 01:38:46;;;;;;;120.57;11.77;;;;;;;-0.26;100.00;96591.00;5033308;28;20029;-54
2023/12/02 01:41:12;;;;;;;98.22;10.40;;;;;;;-0.32;100.00;96590.91;5033354;28;20118;-52
2023/12/02 01:43:37;;;;;;;80.00;9.80;;;;;;;-0.24;100.00;96589.34;5035810;28;20393;-53
2023/12/02 01:46:03;;;;;;;86.22;10.20;;;;;;;-0.16;100.00;96603.09;5031055;28;20081;-52
2023/12/02 01:48:32;;;;;;;70.57;9.93;;;;;;;-0.10;100.00;96596.38;5033662;28;20642;-52
2023/12/02 01:50:58;;;;;;;119.10;12.25;;;;;;;-0.11;100.00;96607.44;5032144;28;20049;-52
2023/12/02 01:53:24;;;;;;;94.22;10.60;;;;;;;-0.19;100.00;96597.94;5033657;28;20078;-53
2023/12/02 01:55:49;;;;;;;128.60;12.55;;;;;;;-0.16;100.00;96599.69;5029267;28;20442;-52
2023/12/02 01:58:14;;;;;;;106.88;11.60;;;;;;;-0.09;100.00;96593.84;5033401;28;20029;-53
2023/12/02 02:00:40;;;;;;;89.28;9.98;;;;;;;-0.20;100.00;96610.69;5033885;28;20041;-52
2023/12/02 02:03:05;;;;;;;70.07;9.23;;;;;;;-0.11;100.00;96615.09;5034277;28;20037;-52
2023/12/02 02:05:31;;;;;;;100.25;11.38;;;;;;;-0.08;100.00;96620.28;5032753;28;20044;-53
2023/12/02 02:07:56;;;;;;;136.07;12.73;;;;;;;-0.02;100.00;96610.13;5030896;28;20104;-53
2023/12/02 02:10:22;;;;;;;76.45;9.48;;;;;;;-0.06;100.00;96603.25;5033410;28;20025;-52
2023/12/02 02:12:47;;;;;;;137.57;13.88;;;;;;;-0.08;100.00;96608.34;5032191;28;20331;-53
2023/12/02 02:15:13;;;;;;;100.13;10.82;;;;;;;-0.06;100.00;96605.81;5031250;28;20032;-52
2023/12/02 02:17:39;;;;;;;69.68;9.45;;;;;;;-0.06;100.00;96603.25;5032221;28;20493;-52
2023/12/02 02:20:05;;;;;;;74.95;10.13;;;;;;;-0.04;100.00;96599.88;5031598;28;20033;-53
2023/12/02 02:22:30;;;;;;;71.90;8.75;;;;;;;-0.04;100.00;96611.81;5031506;28;20038;-53
2023/12/02 02:24:56;;;;;;;134.02;11.95;;;;;;;-0.05;100.00;96610.94;5030428;28;20082;-52
2023/12/02 02:27:21;;;;;;;85.75;10.20;;;;;;;-0.15;100.00;96598.88;5031138;28;20627;-52
2023/12/02 02:29:47;;;;;;;97.57;11.02;;;;;;;-0.04;100.00;96607.56;5031980;28;20025;-53
2023/12/02 02:32:12;;;;;;;71.45;9.23;;;;;;;-0.04;100.00;96599.03;5031184;28;20040;-52
2023/12/02 02:34:42;;;;;;;84.18;9.95;;;;;;;-0.14;100.00;96585.25;5030228;28;20021;-53
2023/12/02 02:37:08;;;;;;;67.50;9.25;;;;;;;-0.07;100.00;96579.38;5029528;28;20047;-52
2023/12/02 02:39:33;;;;;;;91.78;10.20;;;;;;;-0.02;100.00;96584.56;5031665;28;20033;-52
2023/12/02 02:42:05;;;;;;;133.10;12.65;;;;;;;-0.06;100.00;96596.47;5031546;28;20544;-53
2023/12/02 02:44:32;;;;;;;57.50;7.38;;;;;;;-0.35;100.00;96607.03;5029676;28;20555;-53
2023/12/02 02:46:57;;;;;;;142.98;13.45;;;;;;;-0.19;100.00;96604.75;5030300;28;20371;-53
2023/12/02 02:49:22;;;;;;;118.15;11.20;;;;;;;-0.20;100.00;96600.47;5031077;28;20461;-52
2023/12/02 02:51:48;;;;;;;93.03;10.27;;;;;;;-0.14;100.00;96592.91;5031555;28;20029;-52
2023/12/02 02:54:13;;;;;;;94.22;9.65;;;;;;;-0.07;100.00;96604.09;5033096;28;20071;-52
2023/12/02 02:56:38;;;;;;;75.28;10.40;;;;;;;-0.19;100.00;96612.44;5030338;28;20041;-52
2023/12/02 02:59:04;;;;;;;116.38;12.15;;;;;;;-0.17;100.00;96605.63;5031111;28;20219;-52
2023/12/02 03:01:29;;;;;;;70.05;9.18;;;;;;;-0.11;100.00;96605.72;5030218;28;20044;-52
2023/12/02 03:03:54;;;;;;;139.98;13.73;;;;;;;-0.06;100.00;96608.38;5030961;28;20064;-52
2023/12/02 03:06:21;;;;;;;83.20;10.30;;;;;;;-0.07;100.00;96604.94;5029359;28;20061;-52
2023/12/02 03:08:46;;;;;;;59.33;9.95;;;;;;;-0.05;100.00;96604.97;5031504;28;20037;-52
2023/12/02 03:11:12;;;;;;;62.65;8.85;;;;;;;-0.10;100.00;96601.47;5031290;28;20560;-52
2023/12/02 03:13:37;;;;;;;90.68;10.77;;;;;;;0.03;100.00;96598.28;5030295;28;20052;-53
2023/12/02 03:16:03;;;;;;;123.93;11.43;;;;;;;-0.20;100.00;96600.47;5030432;28;20042;-53
2023/12/02 03:18:28;;;;;;;71.40;9.68;;;;;;;-0.20;100.00;96614.09;5032445;28;20044;-53
2023/12/02 03:20:54;;;;;;;154.40;15.02;;;;;;;-0.13;100.00;96607.41;5029406;28;20529;-53
2023/12/02 03:23:19;;;;;;;71.78;9.20;;;;;;;-0.14;100.00;96606.53;5032520;28;20214;-52
2023/12/02 03:25:45;;;;;;;71.55;9.77;;;;;;;-0.15;100.00;96609.94;5031520;28;20038;-53
2023/12/02 03:28:12;;;;;;;93.95;11.07;;;;;;;-0.15;100.00;96604.81;5029415;28;20060;-52
2023/12/02 03:30:38;;;;;;;90.25;10.30;;;;;;;-0.17;100.00;96603.06;5032518;28;20037;-52
2023/12/02 03:33:03;;;;;;;88.68;8.90;;;;;;;-0.42;100.00;96611.19;5029543;28;20404;-52
2023/12/02 03:35:28;;;;;;;104.47;10.15;;;;;;;-0.35;100.00;96608.72;5030839;28;20049;-52
2023/12/02 03:37:54;;;;;;;142.18;12.57;;;;;;;-0.35;100.00;96598.50;5028760;28;20062;-52
2023/12/02 03:40:19;;;;;;;90.45;10.73;;;;;;;-0.14;100.00;96582.69;5029535;28;20036;-53
2023/12/02 03:42:45;;;;;;;86.55;11.32;;;;;;;-0.11;100.00;96592.94;5031578;28;20017;-52
2023/12/02 03:45:11;;;;;;;95.38;10.80;;;;;;;-0.20;100.00;96603.88;5028937;28;20018;-53
2023/12/02 03:47:37;;;;;;;78.65;10.43;;;;;;;-0.36;100.00;96612.13;5031142;28;20029;-52
2023/12/02 03:50:03;;;;;;;130.52;13.30;;;;;;;-0.36;100.00;96623.22;5027712;28;20029;-52
2023/12/02 03:52:28;;;;;;;93.63;9.52;;;;;;;-0.49;100.00;96634.88;5028920;28;20041;-53
2023/12/02 03:54:53;;;;;;;124.22;12.10;;;;;;;-0.46;100.00;96640.06;5031010;28;20029;-53
2023/12/02 03:57:19;;;;;;;94.00;10.15;;;;;;;-0.36;100.00;96642.78;5030668;28;20029;-52
2023/12/02 03:59:45;;;;;;;93.75;11.02;;;;;;;-0.43;100.00;96644.34;5031581;28;20061;-53
2023/12/02 04:02:10;;;;;;;77.45;9.82;;;;;;;-0.38;100.00;96639.34;5029122;28;20057;-52
2023/12/02 04:04:35;;;;;;;79.68;9.57;;;;;;;-0.43;100.00;96642.69;5030774;28;20324;-53
2023/12/02 04:07:01;;;;;;;129.80;12.05;;;;;;;-0.45;100.00;96652.00;5030802;28;20245;-53
2023/12/02 04:09:26;;;;;;;69.93;9.00;;;;;;;-0.32;100.00;96642.00;5032100;28;20399;-53
2023/12/02 04:11:51;;;;;;;65.28;9.50;;;;;;;-0.42;100.00;96638.41;5029331;28;20183;-52
2023/12/02 04:14:17;;;;;;;91.63;10.55;;;;;;;-0.47;100.00;96637.47;5032171;28;20033;-52
2023/12/02 04:16:42;;;;;;;84.72;10.68;;;;;;;-0.53;100.00;96639.09;5031957;28;20040;-52
2023/12/02 04:19:08;;;;;;;129.93;12.10;;;;;;;-0.45;100.00;96644.31;5030387;28;20661;-52
2023/12/02 04:21:35;;;;;;;59.50;6.97;;;;;;;-0.62;100.00;96644.03;5030908;28;20644;-53
2023/12/02 04:24:00;;;;;;;144.73;13.35;;;;;;;-0.50;100.00;96645.94;5031024;28;20597;-53
2023/12/02 04:26:26;;;;;;;82.18;10.05;;;;;;;-0.55;100.00;96648.41;5030825;28;20037;-53
2023/12/02 04:28:51;;;;;;;65.50;8.95;;;;;;;-0.63;100.00;96656.75;5030588;28;20120;-52
2023/12/02 04:31:16;;;;;;;97.55;9.93;;;;;;;-0.80;100.00;96649.63;5029701;28;20080;-53
2023/12/02 04:33:42;;;;;;;68.28;8.57;;;;;;;-0.67;100.00;96651.59;5028909;28;20029;-53
2023/12/02 04:36:09;;;;;;;101.00;10.05;;;;;;;-0.51;100.00;96643.34;5027683;28;20428;-53
2023/12/02 04:38:34;;;;;;;88.03;9.77;;;;;;;-0.53;100.00;96638.22;5030801;28;20039;-53
2023/12/02 04:40:59;;;;;;;143.88;13.35;;;;;;;-0.57;100.00;96638.97;5030798;28;20037;-53
2023/12/02 04:43:25;;;;;;;82.53;8.35;;;;;;;-0.53;100.00;96635.66;5029001;28;20035;-52
2023/12/02 04:45:50;;;;;;;82.65;9.32;;;;;;;-0.64;100.00;96640.56;5029983;28;20307;-52
2023/12/02 04:48:16;;;;;;;91.80;9.63;;;;;;;-0.76;100.00;96633.53;5028849;28;20041;-52
2023/12/02 04:50:41;;;;;;;70.25;7.80;;;;;;;-0.88;100.00;96635.84;5030836;28;20052;-53
2023/12/02 04:53:09;;;;;;;135.45;12.63;;;;;;;-0.78;100.00;96637.72;5032398;28;20032;-53
2023/12/02 04:55:35;;;;;;;91.07;9.90;;;;;;;-0.76;100.00;96643.75;5031382;28;20037;-53
2023/12/02 04:58:01;;;;;;;111.68;11.75;;;;;;;-0.89;100.00;96634.13;5027706;28;20036;-53
2023/12/02 05:00:27;;;;;;;89.53;9.48;;;;;;;-0.85;100.00;96638.47;5029360;28;20041;-53
2023/12/02 05:02:53;;;;;;;91.30;9.52;;;;;;;-0.90;100.00;96647.72;5029773;28;20487;-52
2023/12/02 05:05:19;;;;;;;91.03;10.02;;;;;;;-0.89;100.00;96655.41;5029042;28;20022;-53
2023/12/02 05:07:44;;;;;;;61.95;8.90;;;;;;;-0.74;100.00;96667.59;5027927;28;20320;-52
2023/12/02 05:10:10;;;;;;;143.68;13.13;;;;;;;-0.71;100.00;96674.50;5027472;28;20587;-52
2023/12/02 05:12:36;;;;;;;79.97;9.23;;;;;;;-0.68;100.00;96675.41;5029113;28;20029;-53
2023/12/02 05:15:03;;;;;;;94.88;9.50;;;;;;;-0.72;100.00;96683.84;5028625;28;20102;-53
2023/12/02 05:17:28;;;;;;;72.43;9.23;;;;;;;-0.71;100.00;96689.81;5030259;28;20033;-52
2023/12/02 05:19:54;;;;;;;93.28;9.85;;;;;;;-0.74;100.00;96697.41;5028655;28;20381;-52
2023/12/02 05:22:19;;;;;;;89.63;10.45;;;;;;;-0.81;100.00;96698.97;5030645;28;20040;-52
2023/12/02 05:24:45;;;;;;;91.75;9.48;;;;;;;-0.68;100.00;96711.16;5028607;28;20025;-53
2023/12/02 05:27:11;;;;;;;145.35;12.85;;;;;;;-0.75;100.00;96713.56;5026980;28;20513;-53
2023/12/02 05:29:36;;;;;;;67.47;8.57;;;;;;;-0.74;100.00;96718.66;5030482;28;20040;-52
2023/12/02 05:32:02;;;;;;;101.22;11.23;;;;;;;-0.82;100.00;96727.88;5033158;28;20045;-52
2023/12/02 05:34:27;;;;;;;92.63;9.80;;;;;;;-0.67;100.00;96723.09;5032954;28;20029;-52
2023/12/02 05:36:52;;;;;;;79.95;8.82;;;;;;;-0.79;100.00;96730.47;5034645;28;20072;-52
2023/12/02 05:39:18;;;;;;;98.95;10.95;;;;;;;-0.66;100.00;96722.25;5031009;28;20049;-53
2023/12/02 05:41:43;;;;;;;81.38;9.68;;;;;;;-0.69;100.00;96723.88;5034508;28;20520;-53
2023/12/02 05:44:09;;;;;;;126.75;11.98;;;;;;;-0.71;100.00;96739.16;5031726;28;20022;-52
2023/12/02 05:46:36;;;;;;;68.00;9.50;;;;;;;-0.75;100.00;96736.53;5032666;28;20080;-52
2023/12/02 05:49:01;;;;;;;124.95;11.45;;;;;;;-0.72;100.00;96737.47;5032470;28;20076;-52
2023/12/02 05:51:27;;;;;;;82.38;10.15;;;;;;;-0.78;100.00;96739.88;5032430;28;20041;-53
2023/12/02 05:53:52;;;;;;;70.90;9.57;;;;;;;-0.62;100.00;96735.97;5031468;28;20136;-53
2023/12/02 05:56:19;;;;;;;78.47;9.80;;;;;;;-0.72;100.00;96734.91;5033990;28;20080;-53
2023/12/02 05:58:45;;;;;;;83.22;9.60;;;;;;;-0.71;100.00;96735.78;5034246;28;20032;-52
2023/12/02 06:01:10;;;;;;;140.70;12.38;;;;;;;-0.62;100.00;96729.97;5029990;28;20037;-52
2023/12/02 06:03:36;;;;;;;60.53;9.18;;;;;;;-0.75;100.00;96731.44;5033988;28;20570;-52
2023/12/02 06:06:01;;;;;;;149.45;12.52;;;;;;;-0.75;100.00;96727.16;5037984;28;20044;-53
2023/12/02 06:08:26;;;;;;;78.97;9.68;;;;;;;-0.63;100.00;96726.56;5049102;28;20028;-53
2023/12/02 06:10:52;;;;;;;66.70;6.28;;;;;;;-0.80;100.00;96726.22;5030321;28;20069;-52
2023/12/02 06:13:17;;;;;;;112.03;10.40;;;;;;;-0.80;100.00;96727.09;5031823;28;20028;-52
2023/12/02 06:15:43;;;;;;;92.30;10.57;;;;;;;-0.61;100.00;96716.38;5031219;28;20041;-52
2023/12/02 06:18:08;;;;;;;84.93;8.93;;;;;;;-0.70;100.00;96719.63;5032701;28;20124;-52
2023/12/02 06:20:33;;;;;;;79.65;7.78;;;;;;;-0.75;100.00;96718.66;5030308;28;20041;-52
2023/12/02 06:22:59;;;;;;;108.35;11.88;;;;;;;-0.85;100.00;96732.94;5030533;28;20033;-52
2023/12/02 06:25:25;;;;;;;91.53;10.02;;;;;;;-0.82;100.00;96738.94;5032570;28;20036;-52
2023/12/02 06:27:50;;;;;;;104.30;10.43;;;;;;;-0.83;100.00;96750.00;5032201;28;20087;-52
2023/12/02 06:30:17;;;;;;;169.68;13.07;;;;;;;-1.00;100.00;96754.72;5029297;28;20033;-52
2023/12/02 06:32:42;;;;;;;52.95;7.28;;;;;;;-0.76;100.00;96762.88;5034394;28;20047;-52
2023/12/02 06:35:08;;;;;;;137.43;11.93;;;;;;;-0.75;100.00;96762.06;5029176;28;20479;-53
2023/12/02 06:37:34;;;;;;;70.40;5.85;;;;;;;-1.05;100.00;96766.50;5031400;28;20109;-53
2023/12/02 06:39:59;;;;;;;75.88;9.63;;;;;;;-0.91;100.00;96779.59;5030642;28;20112;-54
2023/12/02 06:42:25;;;;;;;93.03;8.55;;;;;;;-0.77;100.00;96792.69;5031938;28;20037;-54
2023/12/02 06:44:51;;;;;;;64.38;8.82;;;;;;;-0.82;100.00;96807.03;5033380;28;20134;-54
2023/12/02 06:47:16;;;;;;;141.73;13.13;;;;;;;-0.78;100.00;96808.78;5034101;28;20053;-54
2023/12/02 06:49:42;;;;;;;92.60;10.73;;;;;;;-0.70;100.00;96806.44;5030381;28;20029;-51
2023/12/02 06:52:08;;;;;;;98.55;9.80;;;;;;;-0.75;100.00;96808.88;5032111;28;20033;-52
2023/12/02 06:54:36;;;;;;;68.55;9.43;;;;;;;-0.70;100.00;96819.19;5032017;28;20017;-51
2023/12/02 06:57:04;;;;;;;78.65;9.50;;;;;;;-0.70;100.00;96809.84;5031833;28;20124;-52
2023/12/02 06:59:30;;;;;;;76.40;9.50;;;;;;;-0.71;100.00;96812.38;5032313;28;20029;-52
2023/12/02 07:01:55;;;;;;;80.00;9.68;;;;;;;-0.72;100.00;96814.06;5031880;28;20079;-54
2023/12/02 07:04:20;;;;;;;95.03;10.18;;;;;;;-0.74;100.00;96810.59;5029619;28;20033;-54
2023/12/02 07:06:46;;;;;;;76.65;9.40;;;;;;;-0.76;100.00;96809.72;5031939;28;20037;-54
2023/12/02 07:09:11;;;;;;;146.10;12.90;;;;;;;-0.86;100.00;96813.75;5029128;28;20070;-54
2023/12/02 07:11:37;;;;;;;79.15;9.50;;;;;;;-0.87;100.00;96808.59;5032575;28;20049;-53
2023/12/02 07:14:05;;;;;;;81.30;9.73;;;;;;;-0.64;100.00;96811.66;5032090;28;20051;-53
2023/12/02 07:16:31;;;;;;;75.32;8.85;;;;;;;-0.76;100.00;96804.59;5029935;28;20040;-53
2023/12/02 07:18:56;;;;;;;85.07;8.40;;;;;;;-0.74;100.00;96802.09;5031237;28;20451;-54
2023/12/02 07:21:22;;;;;;;89.20;9.32;;;;;;;-0.68;100.00;96812.44;5028442;28;20124;-53
2023/12/02 07:23:48;;;;;;;93.22;10.63;;;;;;;-0.62;100.00;96814.25;5032092;28;20044;-54
2023/12/02 07:26:14;;;;;;;133.07;11.93;;;;;;;-0.58;100.00;96818.59;5029396;28;20241;-53
2023/12/02 07:28:40;;;;;;;69.85;8.90;;;;;;;-0.69;100.00;96815.81;5031178;28;20028;-53
2023/12/02 07:31:11;;;;;;;133.88;11.18;;;;;;;-0.77;100.00;96818.22;5027212;28;20409;-53
2023/12/02 07:33:36;;;;;;;65.60;8.88;;;;;;;-0.74;100.00;96825.06;5031554;28;20021;-52
2023/12/02 07:36:02;;;;;;;96.55;9.98;;;;;;;-0.74;100.00;96823.34;5030239;28;20075;-53
2023/12/02 07:38:27;;;;;;;97.55;9.65;;;;;;;-0.85;100.00;96835.88;5032085;28;20029;-53
2023/12/02 07:40:53;;;;;;;75.95;9.48;;;;;;;-0.74;100.00;96846.34;5028454;28;20068;-53
2023/12/02 07:43:18;;;;;;;127.30;9.32;;;;;;;-0.80;100.00;96836.00;5030316;28;20392;-53
2023/12/02 07:45:43;;;;;;;94.00;8.77;;;;;;;-0.84;100.00;96852.94;5028632;28;20088;-53
2023/12/02 07:48:10;;;;;;;132.98;11.85;;;;;;;-0.91;100.00;96861.28;5032645;28;20021;-53
2023/12/02 07:50:37;;;;;;;69.97;8.32;;;;;;;-0.82;100.00;96861.50;5030604;28;20082;-53
2023/12/02 07:53:02;;;;;;;79.15;9.25;;;;;;;-0.84;100.00;96868.28;5031709;28;20029;-53
2023/12/02 07:55:27;;;;;;;72.20;8.63;;;;;;;-0.79;100.00;96876.00;5030071;28;20177;-53
2023/12/02 07:57:53;;;;;;;82.53;9.07;;;;;;;-0.75;100.00;96879.53;5031720;28;20033;-53
2023/12/02 08:00:18;;;;;;;104.10;9.68;;;;;;;-0.96;100.00;96879.03;5030067;28;20416;-53
2023/12/02 08:02:44;;;;;;;71.18;9.07;;;;;;;-0.85;100.00;96883.53;5031423;28;20032;-53
2023/12/02 08:05:09;;;;;;;155.65;12.07;;;;;;;-0.89;100.00;96879.19;5028635;28;20033;-53
2023/12/02 08:07:35;;;;;;;62.05;8.77;;;;;;;-1.02;100.00;96883.13;5030202;28;20497;-53
2023/12/02 08:10:00;;;;;;;58.25;8.38;;;;;;;-1.01;100.00;96890.81;5031334;28;20179;-53
2023/12/02 08:12:26;;;;;;;117.47;10.38;;;;;;;-0.98;100.00;96896.00;5027470;28;20055;-53
2023/12/02 08:14:51;;;;;;;65.18;8.35;;;;;;;-0.73;100.00;96896.59;5031113;28;20148;-53
2023/12/02 08:17:17;;;;;;;114.00;10.45;;;;;;;-0.94;100.00;96899.50;5030443;28;20060;-53
2023/12/02 08:19:43;;;;;;;102.07;9.70;;;;;;;-0.85;100.00;96906.53;5031787;28;20077;-53
2023/12/02 08:22:08;;;;;;;93.43;10.60;;;;;;;-0.80;100.00;96915.16;5028871;28;20052;-53
2023/12/02 08:24:36;;;;;;;68.43;8.40;;;;;;;-1.00;100.00;96918.06;5030116;28;20075;-53
2023/12/02 08:27:01;;;;;;;86.70;9.82;;;;;;;-0.79;100.00;96925.41;5031660;28;20095;-53
2023/12/02 08:29:27;;;;;;;92.40;9.90;;;;;;;-0.70;100.00;96922.19;5029477;28;20042;-53
2023/12/02 08:31:52;;;;;;;48.53;6.13;;;;;;;-0.77;100.00;96922.88;5031209;28;20124;-53
2023/12/02 08:34:17;;;;;;;162.45;13.77;;;;;;;-0.78;100.00;96921.13;5028589;28;20091;-53
2023/12/02 08:36:43;;;;;;;55.47;8.73;;;;;;;-0.60;100.00;96917.31;5029850;28;20051;-53
2023/12/02 08:39:09;;;;;;;71.10;8.85;;;;;;;-0.58;100.00;96920.75;5030526;28;20076;-53
2023/12/02 08:41:36;;;;;;;87.85;10.10;;;;;;;-0.49;100.00;96925.25;5029465;28;20041;-53
2023/12/02 08:44:01;;;;;;;82.75;9.90;;;;;;;-0.53;100.00;96924.28;5031877;28;20079;-53
2023/12/02 08:46:27;;;;;;;89.95;10.25;;;;;;;-0.43;100.00;96921.13;5028837;28;20539;-54
2023/12/02 08:48:52;;;;;;;82.88;9.23;;;;;;;-0.41;100.00;96928.84;5031456;28;20385;-54
2023/12/02 08:51:18;;;;;;;137.40;12.70;;;;;;;-0.41;100.00;96942.47;5028656;28;20040;-54
2023/12/02 08:53:43;;;;;;;71.35;7.30;;;;;;;-0.51;100.00;96943.09;5030377;28;20100;-53
2023/12/02 08:56:09;;;;;;;103.13;10.23;;;;;;;-0.54;100.00;96943.88;5025592;28;20044;-53
2023/12/02 08:58:34;;;;;;;69.03;7.97;;;;;;;-0.69;100.00;96941.81;5030341;28;20536;-52
2023/12/02 09:01:00;;;;;;;61.28;5.88;;;;;;;-0.63;100.00;96941.06;5029223;28;20075;-54
2023/12/02 09:03:25;;;;;;;106.03;10.57;;;;;;;-0.53;100.00;96953.25;5029066;28;20120;-53
2023/12/02 09:05:56;;;;;;;71.30;8.45;;;;;;;-0.40;100.00;96944.19;5030077;28;20121;-53
2023/12/02 09:08:22;;;;;;;162.98;11.68;;;;;;;-0.30;100.00;96941.84;5032645;28;20029;-53
2023/12/02 09:10:48;;;;;;;74.20;6.72;;;;;;;-0.58;100.00;96947.19;5035149;28;20495;-53
2023/12/02 09:13:40;;;;;;;137.32;12.93;;;;;;;-0.41;100.00;96947.56;5031324;28;20037;-53
2023/12/02 09:16:12;;;;;;;82.45;8.70;;;;;;;-0.48;100.00;96945.69;5034107;28;20067;-53
2023/12/02 09:18:38;;;;;;;90.72;9.40;;;;;;;-0.32;100.00;96957.16;5034953;28;20033;-53
2023/12/02 09:21:17;;;;;;;61.40;6.32;;;;;;;-0.19;100.00;96953.16;5034579;28;20136;-53
2023/12/02 09:23:44;;;;;;;64.38;6.00;;;;;;;-0.10;100.00;96956.75;5033227;28;20057;-53
2023/12/02 09:26:26;;;;;;;90.85;9.38;;;;;;;-0.25;100.00;96959.84;5033164;28;20061;-54
2023/12/02 09:28:52;;;;;;;85.80;9.17;;;;;;;-0.11;100.00;96960.16;5034118;28;20029;-53
2023/12/02 09:31:17;;;;;;;125.38;11.65;;;;;;;0.16;100.00;96956.47;5033170;28;20791;-53
2023/12/02 09:33:45;;;;;;;70.20;8.93;;;;;;;0.28;100.00;96959.28;5034463;28;20032;-53
2023/12/02 09:36:39;;;;;;;93.38;9.73;;;;;;;0.30;100.00;96949.09;5031970;28;20063;-53
2023/12/02 09:39:16;;;;;;;71.68;9.15;;;;;;;0.30;100.00;96955.03;5034813;28;20037;-53
2023/12/02 09:42:00;;;;;;;84.10;8.82;;;;;;;0.54;100.00;96958.94;5032120;28;20413;-53
2023/12/02 09:44:28;;;;;;;102.35;10.27;;;;;;;0.32;100.00;96963.63;5033750;28;20024;-53
2023/12/02 09:47:06;;;;;;;70.65;8.38;;;;;;;0.22;100.00;96954.06;5032555;28;20045;-53
2023/12/02 09:49:40;;;;;;;71.55;9.23;;;;;;;0.42;100.00;96959.56;5034178;28;20577;-53
2023/12/02 09:52:15;;;;;;;65.40;7.28;;;;;;;0.61;100.00;96967.59;5033856;28;20240;-53
2023/12/02 09:54:56;;;;;;;69.57;9.63;;;;;;;0.52;100.00;96965.75;5034921;28;20040;-52
2023/12/02 09:57:37;;;;;;;88.83;9.47;;;;;;;0.10;100.00;96975.09;5032961;28;20487;-53
2023/12/02 10:00:12;;;;;;;83.18;9.85;;;;;;;0.21;100.00;96977.88;5034645;28;20703;-52
2023/12/02 10:02:58;;;;;;;57.05;5.30;;;;;;;0.17;100.00;96987.19;5031662;28;20537;-53
2023/12/02 10:05:24;;;;;;;163.98;14.55;;;;;;;0.20;100.00;96994.06;5031364;28;20036;-52
2023/12/02 10:08:04;;;;;;;69.13;9.27;;;;;;;0.22;100.00;96987.28;5033520;28;20037;-53
2023/12/02 10:10:59;;;;;;;100.50;11.00;;;;;;;0.37;100.00;96987.59;5032754;28;20447;-52
2023/12/02 10:13:37;;;;;;;118.15;12.52;;;;;;;0.37;100.00;96977.38;5036811;28;20036;-52
2023/12/02 10:16:10;;;;;;;76.85;9.30;;;;;;;0.34;100.00;96979.00;5028551;28;20153;-52
2023/12/02 10:18:37;;;;;;;57.53;5.10;;;;;;;0.17;100.00;96982.06;5021558;28;20033;-53
2023/12/02 10:21:10;;;;;;;74.80;9.95;;;;;;;0.23;100.00;96971.13;5022072;28;20064;-52
2023/12/02 10:23:41;;;;;;;62.63;8.65;;;;;;;0.41;100.00;96977.44;5022345;28;20564;-52
2023/12/02 10:26:27;;;;;;;102.22;7.28;;;;;;;0.36;100.00;96967.97;5027266;28;20048;-52
2023/12/02 10:29:09;;;;;;;70.55;8.23;;;;;;;0.27;100.00;96970.34;5035919;28;20025;-53
2023/12/02 10:31:40;;;;;;;69.07;9.10;;;;;;;0.55;100.00;96970.91;5031754;28;20051;-52
2023/12/02 10:34:15;;;;;;;62.10;8.27;;;;;;;0.21;100.00;96980.44;5037923;28;20563;-52
2023/12/02 10:36:43;;;;;;;68.03;8.82;;;;;;;0.18;100.00;96971.00;5034809;28;20052;-52
2023/12/02 10:39:19;;;;;;;48.85;7.63;;;;;;;0.14;100.00;96973.47;5035325;28;20048;-53
2023/12/02 10:41:51;;;;;;;80.88;8.38;;;;;;;0.26;100.00;96983.97;5036120;28;20124;-53
2023/12/02 10:44:20;;;;;;;97.53;10.18;;;;;;;0.43;100.00;96986.00;5034514;28;20062;-52
2023/12/02 10:46:47;;;;;;;83.72;8.63;;;;;;;0.14;100.00;96984.56;5035250;28;20040;-52
2023/12/02 10:49:13;;;;;;;77.82;8.70;;;;;;;-0.04;100.00;96987.59;5033624;28;20554;-52
2023/12/02 10:51:41;;;;;;;74.88;7.90;;;;;;;-0.11;100.00;96990.81;5034067;28;20038;-52
2023/12/02 10:54:08;;;;;;;64.43;6.28;;;;;;;-0.20;100.00;96994.91;5034612;28;20228;-52
2023/12/02 10:56:38;;;;;;;56.53;6.78;;;;;;;-0.23;100.00;96992.25;5032317;28;20840;-53
2023/12/02 10:59:04;;;;;;;74.20;8.65;;;;;;;-0.31;100.00;96996.31;5033435;28;20037;-52
2023/12/02 11:01:43;;;;;;;94.75;6.43;;;;;;;-0.08;100.00;97004.53;5032428;28;20563;-52
2023/12/02 11:04:14;;;;;;;64.60;7.97;;;;;;;0.02;100.00;97007.28;5033820;28;20044;-52
2023/12/02 11:06:46;;;;;;;73.40;8.63;;;;;;;0.20;100.00;97009.41;5033079;28;20098;-52
2023/12/02 11:09:21;;;;;;;70.53;8.18;;;;;;;-0.06;100.00;97017.34;5033258;28;20279;-52
2023/12/02 11:12:05;;;;;;;82.55;7.45;;;;;;;-0.10;100.00;97023.22;5031182;28;20088;-52